Time;durP1;ratioP1;P1;durP2;ratioP2;P2;SDS_P1;SDS_P2;PMS_P1;PMS_P2;Temp;Humidity;BMP_temperature;BMP_pressure;BME280_temperature;BME280_humidity;BME280_pressure;Samples;Min_cycle;Max_cycle;Signal;HPM_P1;HPM_P2
2022/09/04 00:00:44;;;;;;;2.83;2.00;;;;;;;13.00;100.00;99129.53;5175153;27;20046;-47
2022/09/04 00:03:25;;;;;;;4.75;2.75;;;;;;;12.90;100.00;99180.56;5175407;27;20046;-46
2022/09/04 00:05:54;;;;;;;6.50;3.58;;;;;;;12.88;100.00;99187.63;5175508;27;20060;-47
2022/09/04 00:08:34;;;;;;;5.65;2.83;;;;;;;12.92;100.00;99182.94;5175306;27;20058;-47
2022/09/04 00:11:06;;;;;;;8.73;2.83;;;;;;;12.93;100.00;99118.50;5175032;27;20130;-50
2022/09/04 00:13:37;;;;;;;4.50;2.28;;;;;;;12.99;100.00;99102.41;5175093;27;20141;-47
2022/09/04 00:16:08;;;;;;;5.70;2.58;;;;;;;12.99;100.00;99130.69;5174897;27;20050;-47
2022/09/04 00:18:39;;;;;;;4.75;2.55;;;;;;;12.99;100.00;99121.66;5174841;27;20060;-46
2022/09/04 00:21:14;;;;;;;3.92;2.88;;;;;;;12.74;100.00;99137.97;5175247;27;20053;-51
2022/09/04 00:23:43;;;;;;;4.40;2.42;;;;;;;12.71;100.00;99104.56;5174636;27;20054;-47
2022/09/04 00:26:20;;;;;;;8.07;2.88;;;;;;;12.84;100.00;99079.50;5175543;27;20061;-48
2022/09/04 00:28:49;;;;;;;5.22;2.85;;;;;;;12.75;100.00;99032.28;5174820;27;20053;-47
2022/09/04 00:31:25;;;;;;;4.32;2.70;;;;;;;12.99;100.00;99006.09;5174720;27;20049;-47
2022/09/04 00:34:06;;;;;;;5.93;3.05;;;;;;;12.97;100.00;99005.69;5174980;27;20165;-46
2022/09/04 00:36:35;;;;;;;5.95;2.78;;;;;;;12.87;100.00;98990.69;5174482;27;20047;-46
2022/09/04 00:39:09;;;;;;;6.28;2.22;;;;;;;12.82;100.00;99008.34;5174349;27;20054;-48
2022/09/04 00:41:51;;;;;;;9.98;2.80;;;;;;;12.92;100.00;99010.38;5174521;27;20581;-47
2022/09/04 00:44:32;;;;;;;6.80;2.83;;;;;;;12.99;100.00;98976.59;5174409;27;20137;-47
2022/09/04 00:47:19;;;;;;;4.72;2.75;;;;;;;13.17;100.00;98954.69;5174498;27;20125;-48
2022/09/04 00:50:23;;;;;;;4.75;2.72;;;;;;;13.04;100.00;98956.19;5174470;27;20050;-48
2022/09/04 00:53:11;;;;;;;5.07;2.70;;;;;;;12.86;100.00;98981.66;5174729;27;20532;-47
2022/09/04 00:55:54;;;;;;;5.90;2.58;;;;;;;13.07;100.00;98999.47;5174309;27;20046;-50
2022/09/04 00:58:38;;;;;;;5.00;2.50;;;;;;;12.94;100.00;98991.53;5174332;27;20050;-49
2022/09/04 01:01:05;;;;;;;10.38;2.97;;;;;;;13.17;100.00;98968.44;5174483;27;20086;-48
2022/09/04 01:03:45;;;;;;;6.82;2.60;;;;;;;13.13;100.00;98962.16;5174097;27;20107;-48
2022/09/04 01:06:21;;;;;;;3.58;2.72;;;;;;;12.93;100.00;99000.97;5174350;27;20046;-46
2022/09/04 01:09:06;;;;;;;6.22;2.80;;;;;;;12.99;100.00;99031.63;5174123;27;20046;-46
2022/09/04 01:11:39;;;;;;;6.05;2.90;;;;;;;13.03;100.00;99013.19;5174130;27;20505;-46
2022/09/04 01:14:14;;;;;;;4.88;2.78;;;;;;;13.14;100.00;98994.78;5174143;27;20079;-46
2022/09/04 01:16:46;;;;;;;5.72;2.72;;;;;;;12.97;100.00;98997.44;5173932;27;20087;-46
2022/09/04 01:19:29;;;;;;;5.13;2.80;;;;;;;13.07;100.00;98994.75;5174415;27;20090;-46
2022/09/04 01:22:20;;;;;;;5.25;2.60;;;;;;;12.94;100.00;99012.75;5173947;27;20083;-47
2022/09/04 01:25:16;;;;;;;5.85;3.03;;;;;;;13.02;100.00;99022.63;5174225;27;20076;-47
2022/09/04 01:27:54;;;;;;;6.28;2.30;;;;;;;13.01;100.00;98993.53;5137227;27;20454;-46
2022/09/04 01:30:21;;;;;;;2.25;1.92;;;;;;;12.95;100.00;98981.31;5173629;27;20073;-46
2022/09/04 01:33:05;;;;;;;3.47;2.33;;;;;;;13.02;100.00;98953.03;5173929;27;20081;-46
2022/09/04 01:35:38;;;;;;;2.53;2.08;;;;;;;12.70;100.00;98961.91;5173780;27;20050;-46
2022/09/04 01:38:14;;;;;;;2.50;1.80;;;;;;;12.94;100.00;98957.72;5173791;27;20133;-46
2022/09/04 01:40:47;;;;;;;4.13;2.05;;;;;;;12.86;100.00;98984.41;5173561;27;20078;-47
2022/09/04 01:43:17;;;;;;;2.83;1.70;;;;;;;12.45;100.00;99005.72;5173431;27;20050;-46
2022/09/04 01:46:20;;;;;;;3.03;2.03;;;;;;;12.52;100.00;99003.03;5173688;27;20050;-46
2022/09/04 01:48:52;;;;;;;4.10;1.90;;;;;;;12.42;100.00;99015.53;5173713;27;20083;-47
2022/09/04 01:51:26;;;;;;;4.07;2.00;;;;;;;12.44;100.00;99020.66;5172938;27;20056;-48
2022/09/04 01:54:01;;;;;;;;;;;;;;;12.43;100.00;99019.88;5173860;27;20473;-48
2022/09/04 01:56:37;;;;;;;3.15;1.70;;;;;;;12.40;100.00;99045.38;5173891;27;19985;-50
2022/09/04 01:59:14;;;;;;;4.03;2.28;;;;;;;12.48;100.00;99059.97;5173654;27;20136;-49
2022/09/04 02:01:50;;;;;;;4.70;2.08;;;;;;;12.67;100.00;99051.47;5173218;27;20536;-47
2022/09/04 02:04:26;;;;;;;2.53;1.58;;;;;;;12.65;100.00;99037.31;5173456;27;20050;-48
2022/09/04 02:07:02;;;;;;;7.80;1.70;;;;;;;12.56;100.00;99025.06;5173099;27;20056;-47
2022/09/04 02:09:36;;;;;;;4.57;2.33;;;;;;;12.35;100.00;99083.41;5173044;27;20183;-47
2022/09/04 02:12:13;;;;;;;2.42;1.67;;;;;;;12.29;100.00;99063.72;5173090;27;20073;-47
2022/09/04 02:14:54;;;;;;;3.65;1.58;;;;;;;12.28;100.00;99086.88;5173269;27;20142;-46
2022/09/04 02:17:31;;;;;;;2.00;1.70;;;;;;;12.63;100.00;99099.38;5173121;27;20054;-47
2022/09/04 02:20:07;;;;;;;3.88;1.60;;;;;;;12.66;100.00;99074.66;5173013;27;20046;-47
2022/09/04 02:22:43;;;;;;;4.88;1.52;;;;;;;12.51;100.00;99086.69;5173261;27;20046;-47
2022/09/04 02:25:20;;;;;;;3.10;1.90;;;;;;;12.27;100.00;99153.25;5173118;27;20062;-48
2022/09/04 02:27:54;;;;;;;2.22;1.40;;;;;;;12.32;100.00;99183.13;5173209;27;20102;-47
2022/09/04 02:30:21;;;;;;;4.95;1.85;;;;;;;12.39;100.00;99199.69;5172781;27;20510;-46
2022/09/04 02:32:57;;;;;;;3.35;1.95;;;;;;;12.10;100.00;99171.91;5172781;27;20518;-46
2022/09/04 02:35:32;;;;;;;4.07;2.30;;;;;;;12.31;100.00;99231.03;5172798;27;20050;-47
2022/09/04 02:38:08;;;;;;;4.05;1.90;;;;;;;11.92;100.00;99321.97;5172696;27;20046;-46
2022/09/04 02:40:46;;;;;;;3.72;2.00;;;;;;;11.92;100.00;99317.28;5173143;27;20046;-46
2022/09/04 02:43:24;;;;;;;4.53;1.85;;;;;;;12.22;100.00;99303.56;5172477;27;20061;-47
2022/09/04 02:45:58;;;;;;;3.65;1.63;;;;;;;12.22;100.00;99220.31;5172894;27;20494;-47
2022/09/04 02:48:33;;;;;;;6.70;1.70;;;;;;;12.08;100.00;99291.59;5172495;27;20046;-47
2022/09/04 02:51:13;;;;;;;2.45;1.60;;;;;;;11.81;100.00;99349.25;5172682;27;20072;-48
2022/09/04 02:53:49;;;;;;;9.93;1.70;;;;;;;11.77;100.00;99351.94;5172689;27;20132;-46
2022/09/04 02:56:30;;;;;;;2.30;1.67;;;;;;;11.62;100.00;99387.78;5172472;27;20475;-50
2022/09/04 02:59:18;;;;;;;1.85;1.40;;;;;;;11.52;100.00;99420.16;5172603;27;20073;-47
2022/09/04 03:01:52;;;;;;;4.70;2.00;;;;;;;11.78;100.00;99381.00;5172343;27;20046;-47
2022/09/04 03:04:27;;;;;;;2.15;1.95;;;;;;;11.60;100.00;99376.38;5172330;27;20056;-48
2022/09/04 03:06:59;;;;;;;2.95;1.73;;;;;;;11.65;100.00;99436.47;5172486;27;20400;-46
2022/09/04 03:09:32;;;;;;;2.30;1.60;;;;;;;11.83;100.00;99428.53;5172521;27;20085;-46
2022/09/04 03:12:04;;;;;;;2.28;1.90;;;;;;;11.81;100.00;99392.41;5172596;27;20447;-46
2022/09/04 03:14:38;;;;;;;1.88;1.70;;;;;;;11.55;100.00;99443.38;5172380;27;20131;-46
2022/09/04 03:17:11;;;;;;;5.10;1.90;;;;;;;11.81;100.00;99461.09;5172395;27;20092;-46
2022/09/04 03:19:45;;;;;;;3.17;1.90;;;;;;;11.57;100.00;99432.81;5172024;27;20137;-46
2022/09/04 03:22:17;;;;;;;3.08;1.73;;;;;;;11.55;100.00;99440.63;5172155;27;20054;-45
2022/09/04 03:25:08;;;;;;;3.50;1.55;;;;;;;11.50;100.00;99515.06;5172173;27;20043;-45
2022/09/04 03:27:35;;;;;;;3.70;1.70;;;;;;;11.19;100.00;99546.16;5171898;27;20098;-45
2022/09/04 03:30:05;;;;;;;3.60;1.80;;;;;;;11.37;100.00;99602.25;5172141;27;20092;-45
2022/09/04 03:32:39;;;;;;;4.68;1.77;;;;;;;11.21;100.00;99637.97;5171878;27;20043;-45
2022/09/04 03:35:15;;;;;;;8.23;1.92;;;;;;;11.04;100.00;99732.44;5171989;27;20046;-45
2022/09/04 03:37:57;;;;;;;5.00;2.20;;;;;;;11.37;100.00;99709.31;5171788;27;20045;-45
2022/09/04 03:40:41;;;;;;;3.38;1.63;;;;;;;11.51;100.00;99657.47;5171839;27;20497;-46
2022/09/04 03:43:36;;;;;;;3.20;1.98;;;;;;;11.43;100.00;99650.22;5170470;27;20071;-46
2022/09/04 03:46:15;;;;;;;1.63;1.50;;;;;;;11.47;100.00;99640.13;5171824;27;20450;-45
2022/09/04 03:48:56;;;;;;;5.32;1.98;;;;;;;11.65;100.00;99612.22;5172056;27;20050;-46
2022/09/04 03:51:33;;;;;;;5.03;1.80;;;;;;;11.67;100.00;99598.94;5171700;27;20095;-46
2022/09/04 03:54:07;;;;;;;2.53;1.70;;;;;;;11.46;100.00;99657.75;5171524;27;20132;-45
2022/09/04 03:56:55;;;;;;;4.50;1.90;;;;;;;11.56;100.00;99672.84;5171795;27;20091;-45
2022/09/04 03:59:40;;;;;;;2.95;1.55;;;;;;;11.82;100.00;99603.56;5171549;27;20057;-46
2022/09/04 04:02:18;;;;;;;2.05;1.70;;;;;;;11.84;100.00;99553.75;5171764;27;20043;-47
2022/09/04 04:05:17;;;;;;;2.97;1.95;;;;;;;11.86;100.00;99592.66;5171423;27;20077;-46
2022/09/04 04:07:56;;;;;;;5.60;1.83;;;;;;;12.01;100.00;99540.38;5171924;27;20568;-47
2022/09/04 04:10:32;;;;;;;3.25;1.70;;;;;;;12.15;100.00;99503.31;5171643;27;20046;-47
2022/09/04 04:13:25;;;;;;;3.60;1.55;;;;;;;13.16;100.00;99357.72;5171792;27;20050;-47
2022/09/04 04:16:07;;;;;;;2.55;1.88;;;;;;;13.86;100.00;99146.59;5164842;27;20046;-47
2022/09/04 04:18:55;;;;;;;3.47;2.03;;;;;;;14.04;100.00;99012.38;5175611;27;20042;-47
2022/09/04 04:21:34;;;;;;;3.13;1.63;;;;;;;14.59;100.00;98936.75;5175006;27;20396;-47
2022/09/04 04:24:27;;;;;;;2.90;1.58;;;;;;;14.83;100.00;98937.91;5175024;27;20053;-48
2022/09/04 04:27:07;;;;;;;2.35;1.52;;;;;;;14.80;100.00;98941.47;5174824;27;20079;-47
2022/09/04 04:29:59;;;;;;;1.75;1.23;;;;;;;13.77;100.00;98937.56;5174737;27;20483;-51
2022/09/04 04:32:41;;;;;;;1.92;1.38;;;;;;;13.50;100.00;98952.84;5174903;27;20488;-47
2022/09/04 04:35:16;;;;;;;4.30;1.83;;;;;;;13.31;100.00;98967.75;5174649;27;20132;-49
2022/09/04 04:37:55;;;;;;;2.38;1.40;;;;;;;13.00;100.00;99024.97;5175002;27;20129;-50
2022/09/04 04:40:33;;;;;;;1.42;1.27;;;;;;;12.81;100.00;99077.50;5174675;27;20085;-46
2022/09/04 04:43:12;;;;;;;5.25;1.65;;;;;;;12.50;100.00;99120.88;5174577;27;20505;-49
2022/09/04 04:45:51;;;;;;;2.03;1.40;;;;;;;12.37;100.00;99119.56;5174557;27;20520;-48
2022/09/04 04:48:40;;;;;;;2.30;1.40;;;;;;;12.27;100.00;99134.00;5174665;27;20069;-46
2022/09/04 04:51:18;;;;;;;3.42;1.30;;;;;;;13.73;100.00;99043.41;5174919;27;20050;-50
2022/09/04 04:53:54;;;;;;;3.25;1.33;;;;;;;13.56;100.00;98978.81;5174414;27;20133;-46
2022/09/04 04:56:25;;;;;;;3.22;1.25;;;;;;;13.42;100.00;98954.78;5174377;27;20137;-51
2022/09/04 04:59:04;;;;;;;7.35;1.52;;;;;;;12.95;100.00;98962.81;5174213;27;20129;-49
2022/09/04 05:01:43;;;;;;;1.35;1.20;;;;;;;14.10;100.00;98932.88;5174425;27;20128;-50
2022/09/04 05:04:19;;;;;;;3.35;1.30;;;;;;;14.92;100.00;98965.06;5174411;27;20086;-51
2022/09/04 05:06:53;;;;;;;3.00;1.38;;;;;;;14.82;100.00;98977.72;5174036;27;20564;-50
2022/09/04 05:09:32;;;;;;;1.25;1.15;;;;;;;14.73;100.00;98978.13;5174757;27;20118;-50
2022/09/04 05:12:05;;;;;;;3.00;1.40;;;;;;;13.74;100.00;98970.63;5174229;27;20046;-49
2022/09/04 05:14:40;;;;;;;1.97;1.50;;;;;;;14.95;100.00;98973.34;5174306;27;20572;-51
2022/09/04 05:17:17;;;;;;;2.25;1.27;;;;;;;15.38;100.00;98997.25;5174155;27;20081;-49
2022/09/04 05:19:49;;;;;;;2.03;1.50;;;;;;;16.08;100.00;99097.63;5173811;27;20145;-48
2022/09/04 05:22:22;;;;;;;1.83;1.40;;;;;;;16.55;100.00;99161.75;5174535;27;20050;-48
2022/09/04 05:24:59;;;;;;;2.45;1.40;;;;;;;16.87;100.00;99250.19;5173048;27;20403;-47
2022/09/04 05:27:51;;;;;;;2.30;1.73;;;;;;;17.82;100.00;99257.34;5173705;27;20132;-47
2022/09/04 05:30:22;;;;;;;3.45;1.40;;;;;;;17.48;100.00;99293.28;5160891;27;20050;-47
2022/09/04 05:32:58;;;;;;;6.43;1.60;;;;;;;18.06;100.00;99381.16;5173684;27;20182;-50
2022/09/04 05:35:36;;;;;;;1.52;1.42;;;;;;;18.61;100.00;99400.81;5173817;27;20042;-48
2022/09/04 05:38:09;;;;;;;3.35;1.15;;;;;;;19.07;100.00;99411.41;5173650;27;20074;-48
2022/09/04 05:40:55;;;;;;;3.88;1.58;;;;;;;18.98;100.00;99442.47;5173808;27;20450;-47
2022/09/04 05:43:32;;;;;;;1.58;1.23;;;;;;;18.71;100.00;99445.13;5173411;27;20142;-47
2022/09/04 05:46:10;;;;;;;4.18;1.27;;;;;;;19.41;100.00;99449.50;5173624;27;20050;-47
2022/09/04 05:48:45;;;;;;;1.40;1.23;;;;;;;19.39;100.00;99451.88;5173471;27;20417;-48
2022/09/04 05:51:38;;;;;;;8.65;1.40;;;;;;;17.69;100.00;99439.25;5173519;27;20077;-47
2022/09/04 05:54:32;;;;;;;1.67;1.30;;;;;;;18.54;100.00;99443.34;5173538;27;20104;-48
2022/09/04 05:57:17;;;;;;;6.80;1.90;;;;;;;19.19;100.00;99479.53;5161054;27;20424;-46
2022/09/04 06:00:04;;;;;;;2.00;1.25;;;;;;;18.71;100.00;99494.34;5173784;27;20088;-47
2022/09/04 06:03:11;;;;;;;3.85;1.13;;;;;;;18.46;100.00;99450.16;5173542;27;20054;-49
2022/09/04 06:05:46;;;;;;;2.85;1.40;;;;;;;18.80;100.00;99480.78;5173125;27;20500;-46
2022/09/04 06:08:29;;;;;;;1.48;1.25;;;;;;;17.76;100.00;99451.13;5173080;27;20046;-47
2022/09/04 06:11:05;;;;;;;2.50;1.60;;;;;;;17.00;100.00;99413.09;5173339;27;20161;-47
2022/09/04 06:13:54;;;;;;;1.67;1.10;;;;;;;17.76;100.00;99422.56;5173009;27;20054;-47
2022/09/04 06:16:37;;;;;;;1.60;1.48;;;;;;;18.35;100.00;99437.16;5173211;27;20138;-46
2022/09/04 06:19:28;;;;;;;1.60;1.50;;;;;;;19.02;100.00;99492.44;5173032;27;20094;-47
2022/09/04 06:22:24;;;;;;;7.93;1.38;;;;;;;19.58;100.00;99506.84;5172902;27;20133;-48
2022/09/04 06:25:23;;;;;;;4.78;1.55;;;;;;;19.66;100.00;99544.53;5164330;27;20061;-48
2022/09/04 06:28:27;;;;;;;1.65;1.13;;;;;;;18.44;100.00;99530.28;5172974;27;20523;-47
2022/09/04 06:31:02;;;;;;;1.65;1.27;;;;;;;18.04;100.00;99507.59;5119336;27;20093;-47
2022/09/04 06:33:54;;;;;;;1.70;1.60;;;;;;;19.32;100.00;99535.38;5172739;27;20134;-46
2022/09/04 06:36:35;;;;;;;1.23;1.02;;;;;;;18.37;100.00;99508.94;5172298;27;20137;-47
2022/09/04 06:39:22;;;;;;;2.05;1.55;;;;;;;19.62;100.00;99554.88;5172762;27;20141;-47
2022/09/04 06:42:06;;;;;;;1.63;1.52;;;;;;;20.39;100.00;99570.13;5172813;27;20070;-47
2022/09/04 06:44:45;;;;;;;1.52;1.10;;;;;;;21.24;100.00;99590.19;5172644;27;20133;-47
2022/09/04 06:47:21;;;;;;;1.50;0.95;;;;;;;21.17;100.00;99617.44;5172603;27;20497;-48
2022/09/04 06:50:07;;;;;;;0.90;0.90;;;;;;;21.71;98.25;99615.19;5172669;27;20161;-49
2022/09/04 06:52:44;;;;;;;3.38;1.20;;;;;;;21.96;95.17;99625.88;5172971;27;20064;-47
2022/09/04 06:55:19;;;;;;;2.30;1.05;;;;;;;22.68;92.92;99627.06;5172357;27;20194;-49
2022/09/04 06:58:18;;;;;;;1.63;1.10;;;;;;;22.54;86.88;99648.53;5172484;27;20050;-50
2022/09/04 07:00:52;;;;;;;1.80;1.05;;;;;;;21.42;96.31;99622.56;5172560;27;20378;-49
2022/09/04 07:03:36;;;;;;;5.15;1.52;;;;;;;22.00;93.22;99634.94;5172364;27;20050;-50
2022/09/04 07:06:11;;;;;;;5.32;1.30;;;;;;;22.26;87.58;99632.44;5172409;27;20054;-52
2022/09/04 07:08:52;;;;;;;1.15;1.00;;;;;;;21.23;98.11;99624.09;5172318;27;20527;-48
2022/09/04 07:11:28;;;;;;;3.17;1.10;;;;;;;21.99;94.39;99633.38;5172224;27;20047;-48
2022/09/04 07:14:18;;;;;;;3.92;1.20;;;;;;;21.40;89.04;99650.88;5172491;27;20092;-49
2022/09/04 07:16:53;;;;;;;5.85;1.52;;;;;;;21.68;92.13;99648.75;5172103;27;20054;-49
2022/09/04 07:19:58;;;;;;;1.80;1.10;;;;;;;21.70;89.61;99640.75;5172295;27;20042;-47
2022/09/04 07:22:45;;;;;;;1.27;1.20;;;;;;;22.07;87.25;99659.91;5141875;27;20050;-49
2022/09/04 07:25:16;;;;;;;2.13;1.38;;;;;;;22.07;88.06;99653.53;5172290;27;20123;-49
2022/09/04 07:27:59;;;;;;;1.23;1.02;;;;;;;21.58;87.94;99653.31;5172199;27;20573;-49
2022/09/04 07:30:30;;;;;;;6.15;1.30;;;;;;;22.40;88.09;99650.88;5172015;27;20101;-51
2022/09/04 07:33:01;;;;;;;1.55;1.00;;;;;;;22.66;82.96;99669.44;5172125;27;20149;-50
2022/09/04 07:35:35;;;;;;;1.30;1.10;;;;;;;21.41;90.89;99651.66;5172007;27;20061;-52
2022/09/04 07:38:12;;;;;;;3.42;1.00;;;;;;;20.99;85.92;99662.31;5172110;27;20061;-52
2022/09/04 07:40:43;;;;;;;1.02;0.98;;;;;;;21.07;82.15;99675.72;5171833;27;20052;-51
2022/09/04 07:43:17;;;;;;;1.90;1.13;;;;;;;21.02;84.59;99672.63;5171702;27;20087;-49
2022/09/04 07:45:49;;;;;;;1.45;1.08;;;;;;;20.93;84.76;99662.03;5171665;27;20134;-51
2022/09/04 07:48:23;;;;;;;2.22;1.10;;;;;;;22.16;81.26;99664.97;5172040;27;20069;-49
2022/09/04 07:51:03;;;;;;;2.58;1.30;;;;;;;22.02;84.73;99660.41;5175735;27;20542;-50
2022/09/04 07:54:01;;;;;;;2.15;1.23;;;;;;;22.81;81.71;99664.28;5175472;27;20142;-48
2022/09/04 07:56:44;;;;;;;2.88;1.10;;;;;;;22.30;80.87;99675.03;5175615;27;20063;-49
2022/09/04 07:59:41;;;;;;;1.23;1.13;;;;;;;21.77;84.95;99662.94;5175391;27;20163;-47
2022/09/04 08:02:30;;;;;;;3.15;1.05;;;;;;;23.15;79.65;99663.06;5175365;27;20061;-48
2022/09/04 08:05:25;;;;;;;1.30;1.20;;;;;;;22.66;77.59;99677.00;5175450;27;20050;-47
2022/09/04 08:08:21;;;;;;;2.35;1.20;;;;;;;23.90;76.00;99687.06;5169990;27;20428;-47
2022/09/04 08:11:01;;;;;;;1.00;1.00;;;;;;;23.16;77.14;99678.63;5175568;27;20129;-48
2022/09/04 08:13:42;;;;;;;2.72;0.90;;;;;;;22.35;79.09;99682.88;5175213;27;20046;-47
2022/09/04 08:16:17;;;;;;;10.10;1.40;;;;;;;22.36;78.77;99676.09;5174999;27;20042;-47
2022/09/04 08:19:14;;;;;;;1.00;1.00;;;;;;;22.26;81.58;99668.75;5175177;27;20133;-48
2022/09/04 08:21:42;;;;;;;3.08;0.90;;;;;;;22.04;81.39;99665.56;5174894;27;20129;-48
2022/09/04 08:24:39;;;;;;;2.45;1.08;;;;;;;22.66;80.09;99669.44;5174723;27;20099;-47
2022/09/04 08:27:24;;;;;;;2.90;1.30;;;;;;;21.28;88.08;99665.41;5175118;27;20042;-49
2022/09/04 08:30:02;;;;;;;1.83;1.20;;;;;;;21.69;87.23;99658.69;5175336;27;20539;-47
2022/09/04 08:32:56;;;;;;;2.67;1.20;;;;;;;20.96;90.24;99661.19;5174893;27;20067;-48
2022/09/04 08:35:31;;;;;;;0.93;0.90;;;;;;;20.95;85.26;99676.31;5175043;27;20504;-47
2022/09/04 08:38:29;;;;;;;2.10;1.40;;;;;;;20.46;89.26;99661.94;5174742;27;20057;-50
2022/09/04 08:41:33;;;;;;;3.00;0.75;;;;;;;20.01;95.43;99645.44;5174788;27;20568;-49
2022/09/04 08:44:37;;;;;;;1.35;0.98;;;;;;;19.54;91.96;99655.50;5174639;27;20050;-47
2022/09/04 08:47:37;;;;;;;6.45;0.80;;;;;;;20.13;91.38;99655.22;5174521;27;20046;-48
2022/09/04 08:50:33;;;;;;;1.13;1.02;;;;;;;20.44;89.71;99655.97;5170697;27;20081;-48
2022/09/04 08:53:22;;;;;;;0.85;0.80;;;;;;;20.62;85.34;99673.22;5174576;27;20421;-50
2022/09/04 08:56:17;;;;;;;2.03;0.90;;;;;;;19.84;90.09;99669.47;5171722;27;20046;-47
2022/09/04 08:59:29;;;;;;;1.30;1.20;;;;;;;20.63;85.38;99671.25;5174539;27;20493;-47
2022/09/04 09:02:34;;;;;;;0.77;0.77;;;;;;;20.54;86.53;99666.19;5174535;27;20134;-47
2022/09/04 09:05:33;;;;;;;1.15;1.00;;;;;;;20.07;89.65;99654.09;5174431;27;20076;-49
2022/09/04 09:08:24;;;;;;;0.88;0.88;;;;;;;20.95;85.65;99667.94;5174571;27;20133;-47
2022/09/04 09:11:24;;;;;;;1.20;1.08;;;;;;;20.60;87.60;99664.53;5174047;27;20074;-49
2022/09/04 09:14:26;;;;;;;1.05;0.95;;;;;;;21.41;88.23;99651.66;5174167;27;20074;-48
2022/09/04 09:17:11;;;;;;;1.60;1.00;;;;;;;21.44;85.82;99664.75;5174385;27;20640;-47
2022/09/04 09:19:44;;;;;;;1.17;1.00;;;;;;;21.67;82.71;99661.94;5174172;27;20073;-48
2022/09/04 09:22:34;;;;;;;2.93;0.73;;;;;;;22.60;81.46;99665.56;5174322;27;20053;-48
2022/09/04 09:25:20;;;;;;;1.15;1.10;;;;;;;22.26;82.77;99652.75;5173628;27;20065;-48
2022/09/04 09:28:17;;;;;;;2.60;1.13;;;;;;;22.56;81.30;99662.06;5174088;27;20047;-49
2022/09/04 09:31:08;;;;;;;1.92;0.88;;;;;;;23.08;76.21;99674.44;5169994;27;20446;-49
2022/09/04 09:34:05;;;;;;;1.00;1.00;;;;;;;21.61;82.85;99667.22;5171544;27;20104;-52
2022/09/04 09:37:01;;;;;;;1.00;0.90;;;;;;;22.14;81.76;99669.38;5173935;27;20079;-51
2022/09/04 09:39:49;;;;;;;1.95;1.10;;;;;;;22.74;79.91;99670.03;5174505;27;20137;-50
2022/09/04 09:43:07;;;;;;;1.50;1.00;;;;;;;23.21;76.17;99676.06;5173778;27;20082;-48
2022/09/04 09:45:54;;;;;;;0.90;0.90;;;;;;;23.58;72.62;99681.53;5173483;27;20093;-48
2022/09/04 09:48:49;;;;;;;2.22;0.90;;;;;;;23.57;74.14;99669.56;5173901;27;20042;-48
2022/09/04 09:51:42;;;;;;;2.70;1.10;;;;;;;22.13;76.89;99674.16;5173601;27;20057;-48
2022/09/04 09:54:33;;;;;;;1.90;1.00;;;;;;;20.82;85.91;99658.59;5173701;27;20153;-50
2022/09/04 09:57:26;;;;;;;8.10;1.35;;;;;;;21.53;87.05;99651.06;5173475;27;20046;-51
2022/09/04 10:00:05;;;;;;;0.90;0.90;;;;;;;22.04;83.09;99652.41;5173552;27;20042;-49
2022/09/04 10:03:28;;;;;;;3.33;1.10;;;;;;;22.39;83.86;99647.28;5173273;27;20051;-52
2022/09/04 10:06:27;;;;;;;2.33;1.00;;;;;;;22.81;81.74;99655.88;5173103;27;20532;-48
2022/09/04 10:09:22;;;;;;;2.30;1.40;;;;;;;22.74;78.07;99656.84;5129422;27;20141;-48
2022/09/04 10:12:18;;;;;;;0.82;0.82;;;;;;;21.43;84.52;99643.69;5172376;27;20050;-53
2022/09/04 10:15:19;;;;;;;2.53;1.23;;;;;;;21.60;86.82;99636.97;5173339;27;20046;-49
2022/09/04 10:18:25;;;;;;;2.65;1.02;;;;;;;21.47;83.12;99642.38;5172924;27;20425;-52
2022/09/04 10:21:19;;;;;;;2.22;0.85;;;;;;;21.98;85.38;99640.16;5162679;27;20130;-50
2022/09/04 10:24:04;;;;;;;;;;;;;;;22.38;79.84;99654.09;5173406;27;20063;-48
2022/09/04 10:27:15;;;;;;;1.30;1.20;;;;;;;22.83;78.26;99656.25;5159846;27;19983;-48
2022/09/04 10:30:02;;;;;;;1.35;1.25;;;;;;;22.80;77.52;99651.53;5067815;28;20516;-47
2022/09/04 10:33:02;;;;;;;2.08;0.90;;;;;;;21.63;79.19;99652.84;5067923;28;20101;-48
2022/09/04 10:35:40;;;;;;;1.20;1.08;;;;;;;21.70;78.29;99649.13;5068032;28;20059;-48
2022/09/04 10:42:01;;;;;;;2.60;1.15;;;;;;;22.02;74.75;99646.44;5067128;28;20059;-49
2022/09/04 10:44:43;;;;;;;2.33;1.20;;;;;;;22.93;75.00;99644.03;5067883;28;20052;-48
2022/09/04 10:47:35;;;;;;;1.10;1.00;;;;;;;22.37;73.71;99657.31;5067809;28;20091;-48
2022/09/04 10:50:21;;;;;;;2.95;1.10;;;;;;;21.52;78.83;99641.09;5067601;28;20087;-47
2022/09/04 10:53:13;;;;;;;1.52;1.27;;;;;;;22.48;78.88;99641.88;5067873;28;20186;-48
2022/09/04 10:56:07;;;;;;;3.45;1.20;;;;;;;22.76;71.48;99650.84;5067547;28;20456;-47
2022/09/04 10:58:48;;;;;;;2.97;0.97;;;;;;;22.59;71.86;99654.81;5057944;28;20052;-47
2022/09/04 11:01:53;;;;;;;1.63;1.00;;;;;;;22.87;71.36;99648.56;5157874;27;20050;-48
2022/09/04 11:04:44;;;;;;;1.35;0.90;;;;;;;21.64;76.96;99642.47;5172546;27;20042;-48
2022/09/04 11:07:36;;;;;;;2.22;1.10;;;;;;;21.56;76.89;99631.44;5172382;27;20129;-49
2022/09/04 11:10:19;;;;;;;3.17;0.63;;;;;;;21.24;79.49;99634.03;5172636;27;20046;-47
2022/09/04 11:13:11;;;;;;;2.67;0.60;;;;;;;20.40;83.17;99627.41;5172194;27;20505;-47
2022/09/04 11:16:05;;;;;;;0.98;0.73;;;;;;;20.22;79.51;99636.78;5172397;27;20236;-48
2022/09/04 11:19:18;;;;;;;0.75;0.70;;;;;;;19.58;82.34;99636.78;5172272;27;20506;-47
2022/09/04 11:22:19;;;;;;;1.00;0.90;;;;;;;20.02;81.62;99624.72;5172043;27;20050;-47
2022/09/04 11:25:17;;;;;;;1.92;0.75;;;;;;;19.62;82.81;99626.38;5175740;27;20060;-48
2022/09/04 11:28:05;;;;;;;0.70;0.70;;;;;;;19.26;82.21;99621.25;5175875;27;20137;-47
2022/09/04 11:30:50;;;;;;;0.77;0.57;;;;;;;19.84;81.04;99618.63;5175634;27;20580;-48
2022/09/04 11:33:49;;;;;;;0.93;0.90;;;;;;;19.93;78.57;99625.25;5175807;27;20046;-47
2022/09/04 11:36:51;;;;;;;2.80;0.82;;;;;;;20.03;80.23;99619.97;5175839;27;20074;-49
2022/09/04 11:40:11;;;;;;;0.60;0.60;;;;;;;20.08;79.70;99623.06;5175462;27;20054;-47
2022/09/04 11:42:57;;;;;;;0.85;0.60;;;;;;;20.36;70.68;99632.22;5175621;27;20050;-49
2022/09/04 11:45:47;;;;;;;0.63;0.60;;;;;;;20.01;74.21;99627.94;5175645;27;20046;-47
2022/09/04 11:48:57;;;;;;;0.98;0.88;;;;;;;20.44;76.82;99628.91;5175600;27;20046;-47
2022/09/04 11:51:50;;;;;;;0.70;0.70;;;;;;;19.68;80.95;99621.97;5175401;27;20046;-48
2022/09/04 11:54:53;;;;;;;1.63;0.80;;;;;;;19.75;81.37;99619.13;5175826;27;20174;-50
2022/09/04 11:57:30;;;;;;;1.05;0.80;;;;;;;18.91;85.36;99608.47;5175346;27;20051;-52
2022/09/04 12:00:10;;;;;;;3.40;0.70;;;;;;;18.77;87.30;99612.16;5175325;27;20136;-49
2022/09/04 12:03:14;;;;;;;0.98;0.60;;;;;;;19.10;84.31;99612.66;5175383;27;20429;-49
2022/09/04 12:05:58;;;;;;;1.35;0.90;;;;;;;19.04;84.46;99607.53;5143826;27;20056;-49
2022/09/04 12:08:53;;;;;;;0.98;0.70;;;;;;;18.92;81.29;99612.81;5175635;27;20140;-47
2022/09/04 12:11:50;;;;;;;1.30;0.60;;;;;;;18.49;85.82;99597.28;5169756;27;20484;-50
2022/09/04 12:14:39;;;;;;;0.70;0.70;;;;;;;18.71;81.22;99611.75;5175020;27;20134;-51
2022/09/04 12:17:46;;;;;;;1.45;0.80;;;;;;;19.17;81.39;99613.38;5175253;27;20102;-51
2022/09/04 12:20:54;;;;;;;0.75;0.50;;;;;;;19.31;77.66;99617.22;5138251;27;20133;-49
2022/09/04 12:24:01;;;;;;;0.57;0.57;;;;;;;19.25;76.66;99620.44;5175189;27;20080;-47
2022/09/04 12:27:11;;;;;;;0.80;0.80;;;;;;;18.94;73.95;99624.31;5175110;27;20515;-51
2022/09/04 12:30:03;;;;;;;1.23;0.80;;;;;;;18.70;70.94;99628.84;5163544;27;20057;-49
2022/09/04 12:33:05;;;;;;;0.70;0.70;;;;;;;18.35;70.42;99625.91;5174851;27;20493;-47
2022/09/04 12:35:51;;;;;;;2.17;0.63;;;;;;;18.13;72.26;99630.00;5174448;27;20109;-50
2022/09/04 12:38:37;;;;;;;0.80;0.73;;;;;;;17.85;80.14;99617.06;5174750;27;20493;-47
2022/09/04 12:41:08;;;;;;;0.95;0.70;;;;;;;17.74;84.41;99597.66;5174876;27;20066;-48
2022/09/04 12:43:50;;;;;;;0.52;0.52;;;;;;;17.93;84.05;99601.19;5174528;27;20094;-48
2022/09/04 12:46:34;;;;;;;4.22;0.82;;;;;;;18.02;86.24;99602.31;5174566;27;20436;-48
2022/09/04 12:49:25;;;;;;;0.70;0.55;;;;;;;18.21;83.56;99605.78;5174666;27;20581;-48
2022/09/04 12:52:06;;;;;;;0.65;0.65;;;;;;;18.31;84.44;99610.47;5174452;27;20129;-47